createdAt,value
2023-05-24T00:00:53.308Z,100312.63
2023-05-24T00:04:01.869Z,100300.50
2023-05-24T00:07:03.752Z,100306.22
2023-05-24T00:10:06.901Z,100294.53
2023-05-24T00:13:08.555Z,100293.78
2023-05-24T00:16:10.202Z,100298.81
2023-05-24T00:19:11.885Z,100292.56
2023-05-24T00:22:14.126Z,100298.34
2023-05-24T00:25:15.812Z,100299.53
2023-05-24T00:28:17.652Z,100289.97
2023-05-24T00:31:19.311Z,100298.16
2023-05-24T00:34:20.988Z,100284.75
2023-05-24T00:37:23.460Z,100298.91
2023-05-24T00:40:25.241Z,100294.66
2023-05-24T00:43:27.044Z,100284.88
2023-05-24T00:46:38.116Z,100276.97
2023-05-24T00:49:40.377Z,100282.13
2023-05-24T00:52:42.376Z,100282.78
2023-05-24T00:55:44.096Z,100271.69
2023-05-24T00:58:46.290Z,100281.81
2023-05-24T01:01:48.008Z,100283.75
2023-05-24T01:04:49.637Z,100275.66
2023-05-24T01:08:21.936Z,100280.47
2023-05-24T01:11:26.557Z,100277.09
2023-05-24T01:14:37.071Z,100286.91
2023-05-24T01:18:11.651Z,100288.66
2023-05-24T01:21:14.066Z,100286.47
2023-05-24T01:24:25.662Z,100283.78
2023-05-24T01:27:28.204Z,100283.63
2023-05-24T01:30:30.728Z,100273.03
2023-05-24T01:33:32.766Z,100274.53
2023-05-24T01:36:34.365Z,100270.22
2023-05-24T01:39:36.483Z,100267.81
2023-05-24T01:42:48.969Z,100272.16
2023-05-24T01:46:19.553Z,100266.63
2023-05-24T01:49:31.318Z,100265.06
2023-05-24T01:52:35.834Z,100260.78
2023-05-24T01:55:38.162Z,100267.75
2023-05-24T01:58:44.062Z,100258.19
2023-05-24T02:01:46.651Z,100260.63
2023-05-24T02:04:48.316Z,100269.66
2023-05-24T02:07:50.081Z,100271.28
2023-05-24T02:10:51.677Z,100256.69
2023-05-24T02:13:53.264Z,100270.13
2023-05-24T02:16:58.850Z,100269.94
2023-05-24T02:20:01.042Z,100266.63
2023-05-24T02:23:06.330Z,100259.56
2023-05-24T02:26:11.537Z,100270.38
2023-05-24T02:29:13.252Z,100264.84
2023-05-24T02:32:14.952Z,100270.88
2023-05-24T02:35:16.656Z,100256.31
2023-05-24T02:38:18.313Z,100266.66
2023-05-24T02:41:20.205Z,100265.91
2023-05-24T02:44:21.781Z,100263.59
2023-05-24T02:47:23.453Z,100275.25
2023-05-24T02:50:25.128Z,100266.97
2023-05-24T02:53:26.699Z,100269.66
2023-05-24T02:56:29.234Z,100271.13
2023-05-24T02:59:31.242Z,100268.97
2023-05-24T03:02:34.263Z,100275.13
2023-05-24T03:05:35.999Z,100274.94
2023-05-24T03:08:37.727Z,100275.13
2023-05-24T03:11:39.325Z,100284.94
2023-05-24T03:14:40.898Z,100280.63
2023-05-24T03:17:42.476Z,100294.41
2023-05-24T03:20:44.329Z,100285.75
2023-05-24T03:23:46.234Z,100296.59
2023-05-24T03:26:48.135Z,100299.72
2023-05-24T03:29:49.784Z,100293.59
2023-05-24T03:32:51.502Z,100291.75
2023-05-24T03:35:53.137Z,100294.72
2023-05-24T03:38:58.103Z,100286.72
2023-05-24T03:41:59.810Z,100296.31
2023-05-24T03:45:01.449Z,100300.25
2023-05-24T03:48:03.388Z,100301.22
2023-05-24T03:51:05.113Z,100304.00
2023-05-24T03:54:06.736Z,100293.34
2023-05-24T03:57:08.639Z,100303.25
2023-05-24T04:00:11.064Z,100309.69
2023-05-24T04:03:12.823Z,100310.28
2023-05-24T04:06:16.258Z,100302.31
2023-05-24T04:09:19.332Z,100311.97
2023-05-24T04:12:20.974Z,100300.59
2023-05-24T04:15:24.004Z,100314.75
2023-05-24T04:18:25.754Z,100304.63
2023-05-24T04:21:27.724Z,100325.41
2023-05-24T04:24:29.691Z,100320.75
2023-05-24T04:27:31.524Z,100323.03
2023-05-24T04:30:33.277Z,100325.81
2023-05-24T04:33:35.120Z,100333.25
2023-05-24T04:36:36.736Z,100333.69
2023-05-24T04:39:38.351Z,100335.75
2023-05-24T04:42:39.991Z,100345.03
2023-05-24T04:45:41.858Z,100343.38
2023-05-24T04:48:43.617Z,100329.19
2023-05-24T04:51:46.440Z,100343.16
2023-05-24T04:54:49.500Z,100341.47
2023-05-24T04:57:51.081Z,100348.53
2023-05-24T05:00:52.656Z,100349.81
2023-05-24T05:03:54.290Z,100341.81
2023-05-24T05:06:56.090Z,100356.31
2023-05-24T05:09:57.670Z,100355.78
2023-05-24T05:12:59.236Z,100357.13
2023-05-24T05:16:02.261Z,100362.00
2023-05-24T05:19:07.202Z,100359.06
2023-05-24T05:22:08.850Z,100357.47
2023-05-24T05:25:10.545Z,100359.44
2023-05-24T05:28:12.185Z,100362.28
2023-05-24T05:31:13.799Z,100356.56
2023-05-24T05:34:15.377Z,100368.56
2023-05-24T05:37:17.019Z,100365.69
2023-05-24T05:40:18.692Z,100356.13
2023-05-24T05:43:20.264Z,100359.19
2023-05-24T05:46:22.405Z,100361.78
2023-05-24T05:49:24.200Z,100364.13
2023-05-24T05:52:25.914Z,100353.59
2023-05-24T05:55:27.514Z,100366.63
2023-05-24T05:58:29.112Z,100370.50
2023-05-24T06:01:30.781Z,100373.47
2023-05-24T06:04:32.578Z,100364.97
2023-05-24T06:07:35.746Z,100378.13
2023-05-24T06:10:37.392Z,100380.22
2023-05-24T06:13:38.997Z,100371.25
2023-05-24T06:16:43.559Z,100370.31
2023-05-24T06:19:45.761Z,100394.31
2023-05-24T06:22:49.664Z,100386.09
2023-05-24T06:25:51.326Z,100393.66
2023-05-24T06:28:52.939Z,100402.06
2023-05-24T06:31:54.638Z,100404.88
2023-05-24T06:34:56.467Z,100401.47
2023-05-24T06:38:00.098Z,100400.25
2023-05-24T06:41:01.731Z,100414.50
2023-05-24T06:44:03.468Z,100419.66
2023-05-24T06:47:05.914Z,100414.28
2023-05-24T06:50:08.863Z,100420.47
2023-05-24T06:53:10.635Z,100409.72
2023-05-24T06:56:12.201Z,100424.44
2023-05-24T06:59:13.924Z,100423.94
2023-05-24T07:02:15.692Z,100421.69
2023-05-24T07:05:17.398Z,100427.25
2023-05-24T07:08:19.013Z,100430.16
2023-05-24T07:11:20.733Z,100428.06
2023-05-24T07:14:24.073Z,100439.84
2023-05-24T07:17:25.777Z,100435.75
2023-05-24T07:20:28.390Z,100428.72
2023-05-24T07:23:29.980Z,100438.19
2023-05-24T07:26:31.759Z,100445.25
2023-05-24T07:29:33.382Z,100439.00
2023-05-24T07:32:35.146Z,100443.19
2023-05-24T07:35:37.112Z,100445.25
2023-05-24T07:38:39.150Z,100446.69
2023-05-24T07:41:41.140Z,100442.75
2023-05-24T07:44:42.773Z,100436.38
2023-05-24T07:47:44.426Z,100451.47
2023-05-24T07:50:48.770Z,100444.47
2023-05-24T07:53:50.478Z,100453.13
2023-05-24T07:56:52.621Z,100452.28
2023-05-24T07:59:54.315Z,100461.09
2023-05-24T08:02:56.583Z,100454.63
2023-05-24T08:05:58.454Z,100463.75
2023-05-24T08:09:00.262Z,100469.16
2023-05-24T08:12:05.820Z,100475.09
2023-05-24T08:15:07.903Z,100469.28
2023-05-24T08:18:09.618Z,100471.81
2023-05-24T08:21:11.654Z,100467.69
2023-05-24T08:24:13.493Z,100464.31
2023-05-24T08:27:15.123Z,100472.06
2023-05-24T08:30:16.793Z,100470.38
2023-05-24T08:33:18.422Z,100479.75
2023-05-24T08:36:21.307Z,100465.44
2023-05-24T08:39:23.824Z,100480.03
2023-05-24T08:42:25.725Z,100482.19
2023-05-24T08:45:30.622Z,100483.63
2023-05-24T08:48:32.884Z,100492.19
2023-05-24T08:51:34.817Z,100497.56
2023-05-24T08:54:37.272Z,100500.63
2023-05-24T08:57:41.380Z,100500.94
2023-05-24T09:00:43.270Z,100498.94
2023-05-24T09:03:46.870Z,100501.81
2023-05-24T09:06:49.046Z,100490.34
2023-05-24T09:09:58.512Z,100506.66
2023-05-24T09:13:02.761Z,100510.44
2023-05-24T09:16:06.291Z,100497.72
2023-05-24T09:19:08.053Z,100498.03
2023-05-24T09:22:10.181Z,100499.28
2023-05-24T09:25:14.702Z,100509.47
2023-05-24T09:28:21.052Z,100512.66
2023-05-24T09:31:35.992Z,100508.34
2023-05-24T09:34:42.024Z,100510.00
2023-05-24T09:37:47.219Z,100507.31
2023-05-24T09:40:59.356Z,100510.06
2023-05-24T09:44:01.941Z,100509.41
2023-05-24T09:47:05.301Z,100512.03
2023-05-24T09:50:15.957Z,100511.41
2023-05-24T09:53:19.298Z,100514.88
2023-05-24T09:56:21.418Z,100500.78
2023-05-24T09:59:24.522Z,100506.16
2023-05-24T10:02:26.363Z,100514.19
2023-05-24T10:05:28.959Z,100506.69
2023-05-24T10:08:32.156Z,100512.59
2023-05-24T10:11:36.069Z,100511.06
2023-05-24T10:14:39.356Z,100515.28
2023-05-24T10:17:41.092Z,100509.00
2023-05-24T10:20:43.238Z,100519.16
2023-05-24T10:23:51.216Z,100504.94
2023-05-24T10:26:55.753Z,100511.06
2023-05-24T10:30:28.185Z,100510.84
2023-05-24T10:33:32.659Z,100504.59
2023-05-24T10:36:35.110Z,100496.53
2023-05-24T10:39:37.309Z,100507.66
2023-05-24T10:42:39.120Z,100504.25
2023-05-24T10:45:41.400Z,100501.28
2023-05-24T10:48:43.420Z,100494.81
2023-05-24T10:51:45.014Z,100500.75
2023-05-24T10:55:05.318Z,100496.00
2023-05-24T10:58:07.832Z,100496.28
2023-05-24T11:01:36.191Z,100498.00
2023-05-24T11:04:40.710Z,100504.03
2023-05-24T11:07:45.317Z,100505.72
2023-05-24T11:10:47.609Z,100494.72
2023-05-24T11:13:49.461Z,100489.78
2023-05-24T11:16:51.949Z,100487.63
2023-05-24T11:19:55.660Z,100479.88
2023-05-24T11:22:57.526Z,100494.59
2023-05-24T11:25:59.221Z,100489.97
2023-05-24T11:29:04.170Z,100483.88
2023-05-24T11:32:07.920Z,100482.63
2023-05-24T11:35:11.664Z,100476.72
2023-05-24T11:38:15.464Z,100478.41
2023-05-24T11:41:18.067Z,100476.53
2023-05-24T11:44:19.879Z,100476.00
2023-05-24T11:47:22.533Z,100467.03
2023-05-24T11:50:45.829Z,100468.59
2023-05-24T11:53:46.487Z,100469.59
2023-05-24T11:56:48.235Z,100463.03
2023-05-24T11:59:50.100Z,100463.63
2023-05-24T12:02:54.765Z,100468.03
2023-05-24T12:05:59.034Z,100465.84
2023-05-24T12:09:00.738Z,100460.88
2023-05-24T12:12:02.537Z,100452.69
2023-05-24T12:15:07.947Z,100449.78
2023-05-24T12:18:19.793Z,100448.69
2023-05-24T12:21:21.518Z,100453.28
2023-05-24T12:24:24.212Z,100455.03
2023-05-24T12:27:27.669Z,100437.28
2023-05-24T12:30:30.334Z,100442.56
2023-05-24T12:33:32.851Z,100440.31
2023-05-24T12:36:36.708Z,100444.22
2023-05-24T12:39:38.832Z,100424.31
2023-05-24T12:42:40.451Z,100437.50
2023-05-24T12:45:42.028Z,100421.03
2023-05-24T12:48:44.232Z,100430.66
2023-05-24T12:51:47.820Z,100423.41
2023-05-24T12:54:50.958Z,100425.25
2023-05-24T12:57:54.462Z,100414.16
2023-05-24T13:00:56.407Z,100419.91
2023-05-24T13:03:58.518Z,100422.59
2023-05-24T13:07:00.492Z,100422.63
2023-05-24T13:10:02.363Z,100410.59
2023-05-24T13:13:03.980Z,100413.59
2023-05-24T13:16:10.534Z,100415.53
2023-05-24T13:19:12.484Z,100408.50
2023-05-24T13:22:14.548Z,100419.00
2023-05-24T13:25:16.653Z,100407.69
2023-05-24T13:28:18.342Z,100401.97
2023-05-24T13:31:19.974Z,100408.63
2023-05-24T13:34:21.776Z,100411.91
2023-05-24T13:37:24.116Z,100403.91
2023-05-24T13:40:26.206Z,100397.97
2023-05-24T13:43:27.908Z,100404.66
2023-05-24T13:46:29.708Z,100397.44
2023-05-24T13:49:31.466Z,100402.00
2023-05-24T13:52:33.142Z,100386.94
2023-05-24T13:55:37.788Z,100394.31
2023-05-24T13:58:39.437Z,100379.69
2023-05-24T14:01:42.529Z,100387.94
2023-05-24T14:04:44.171Z,100381.94
2023-05-24T14:07:46.398Z,100383.56
2023-05-24T14:10:50.039Z,100393.28
2023-05-24T14:16:56.652Z,100385.63
2023-05-24T14:19:58.435Z,100390.03
2023-05-24T14:23:00.093Z,100387.91
2023-05-24T14:26:02.705Z,100388.00
2023-05-24T14:29:04.301Z,100392.16
2023-05-24T14:32:06.186Z,100392.31
2023-05-24T14:35:08.172Z,100386.31
2023-05-24T14:38:11.507Z,100389.03
2023-05-24T14:41:13.090Z,100385.78
2023-05-24T14:44:14.734Z,100392.34
2023-05-24T14:47:16.363Z,100387.56
2023-05-24T14:50:18.064Z,100398.84
2023-05-24T14:53:19.800Z,100386.81
2023-05-24T14:56:22.029Z,100391.41
2023-05-24T14:59:23.668Z,100397.47
2023-05-24T15:02:25.460Z,100392.56
2023-05-24T15:05:27.137Z,100403.16
2023-05-24T15:08:29.091Z,100403.75
2023-05-24T15:11:30.760Z,100401.56
2023-05-24T15:14:32.390Z,100396.91
2023-05-24T15:17:34.075Z,100401.00
2023-05-24T15:20:36.588Z,100394.22
2023-05-24T15:23:38.270Z,100400.03
2023-05-24T15:26:39.965Z,100390.97
2023-05-24T15:29:41.763Z,100399.38
2023-05-24T15:32:43.568Z,100384.50
2023-05-24T15:35:45.164Z,100388.34
2023-05-24T15:38:46.800Z,100386.56
2023-05-24T15:41:48.451Z,100389.25
2023-05-24T15:44:50.453Z,100401.91
2023-05-24T15:47:52.078Z,100391.59
2023-05-24T15:51:46.469Z,100396.09
2023-05-24T15:54:15.985Z,100398.94
2023-05-24T15:57:17.919Z,100403.31
2023-05-24T16:00:19.765Z,100403.50
2023-05-24T16:03:21.454Z,100407.41
2023-05-24T16:06:23.166Z,100410.31
2023-05-24T16:09:24.818Z,100404.88
2023-05-24T16:12:26.401Z,100402.34
2023-05-24T16:15:30.166Z,100418.31
2023-05-24T16:18:34.646Z,100419.66
2023-05-24T16:21:36.411Z,100420.78
2023-05-24T16:24:38.373Z,100425.59
2023-05-24T16:27:39.968Z,100436.84
2023-05-24T16:30:41.949Z,100446.16
2023-05-24T16:33:44.356Z,100434.28
2023-05-24T16:36:46.975Z,100443.41
2023-05-24T16:39:48.626Z,100430.81
2023-05-24T16:42:51.403Z,100436.56
2023-05-24T16:45:53.140Z,100444.44
2023-05-24T16:48:54.949Z,100446.72
2023-05-24T16:51:57.160Z,100454.47
2023-05-24T16:54:59.082Z,100448.88
2023-05-24T16:58:00.916Z,100445.81
2023-05-24T17:01:02.503Z,100454.06
2023-05-24T17:04:04.240Z,100461.06
2023-05-24T17:07:06.006Z,100462.13
2023-05-24T17:10:08.110Z,100464.66
2023-05-24T17:13:09.702Z,100485.19
2023-05-24T17:16:12.218Z,100479.06
2023-05-24T17:19:14.133Z,100487.69
2023-05-24T17:22:16.022Z,100498.31
2023-05-24T17:25:17.764Z,100510.16
2023-05-24T17:28:19.509Z,100512.78
2023-05-24T17:31:21.783Z,100506.28
2023-05-24T17:34:23.437Z,100508.78
2023-05-24T17:37:25.047Z,100514.81
2023-05-24T17:40:26.768Z,100513.19
2023-05-24T17:43:34.698Z,100524.56
2023-05-24T17:46:38.397Z,100521.91
2023-05-24T17:49:42.217Z,100533.03
2023-05-24T17:52:43.854Z,100534.72
2023-05-24T17:55:45.708Z,100526.63
2023-05-24T17:58:47.796Z,100542.91
2023-05-24T18:01:49.593Z,100537.53
2023-05-24T18:04:52.760Z,100546.63
2023-05-24T18:07:54.528Z,100547.03
2023-05-24T18:10:56.396Z,100555.66
2023-05-24T18:14:00.365Z,100544.25
2023-05-24T18:17:02.086Z,100559.44
2023-05-24T18:20:04.043Z,100561.56
2023-05-24T18:23:05.700Z,100556.38
2023-05-24T18:26:08.844Z,100562.47
2023-05-24T18:29:10.560Z,100557.81
2023-05-24T18:32:12.160Z,100575.31
2023-05-24T18:35:16.804Z,100573.19
2023-05-24T18:38:18.434Z,100577.56
2023-05-24T18:41:20.138Z,100578.72
2023-05-24T18:44:21.874Z,100583.81
2023-05-24T18:47:26.063Z,100582.13
2023-05-24T18:50:27.684Z,100578.31
2023-05-24T18:53:29.237Z,100595.56
2023-05-24T18:56:30.932Z,100594.78
2023-05-24T18:59:34.463Z,100596.84
2023-05-24T19:02:38.894Z,100606.19
2023-05-24T19:05:43.563Z,100619.66
2023-05-24T19:08:45.738Z,100618.19
2023-05-24T19:11:48.993Z,100606.59
2023-05-24T19:14:50.802Z,100620.97
2023-05-24T19:17:53.351Z,100619.22
2023-05-24T19:20:55.014Z,100612.69
2023-05-24T19:23:56.627Z,100620.78
2023-05-24T19:27:00.418Z,100619.81
2023-05-24T19:30:02.392Z,100616.66
2023-05-24T19:33:04.161Z,100625.41
2023-05-24T19:36:07.212Z,100617.47
2023-05-24T19:39:10.391Z,100618.47
2023-05-24T19:42:12.124Z,100622.81
2023-05-24T19:45:13.714Z,100635.06
2023-05-24T19:48:15.424Z,100633.66
2023-05-24T19:51:17.439Z,100631.19
2023-05-24T19:54:19.115Z,100624.00
2023-05-24T19:57:21.412Z,100607.59
2023-05-24T20:00:23.113Z,100621.97
2023-05-24T20:03:25.113Z,100623.91
2023-05-24T20:06:27.462Z,100624.72
2023-05-24T20:09:29.118Z,100622.69
2023-05-24T20:12:31.379Z,100623.03
2023-05-24T20:15:33.022Z,100620.91
2023-05-24T20:18:35.464Z,100604.38
2023-05-24T20:21:37.197Z,100616.53
2023-05-24T20:24:38.804Z,100626.19
2023-05-24T20:27:41.952Z,100619.56
2023-05-24T20:30:45.784Z,100623.41
2023-05-24T20:33:49.156Z,100612.31
2023-05-24T20:36:50.823Z,100622.09
2023-05-24T20:39:52.434Z,100616.16
2023-05-24T20:42:55.362Z,100616.69
2023-05-24T20:45:56.964Z,100623.41
2023-05-24T20:48:58.711Z,100620.06
2023-05-24T20:52:00.385Z,100623.75
2023-05-24T20:55:02.367Z,100633.41
2023-05-24T20:58:04.088Z,100619.63
2023-05-24T21:01:06.128Z,100628.13
2023-05-24T21:04:07.768Z,100630.00
2023-05-24T21:07:09.360Z,100638.66
2023-05-24T21:10:17.274Z,100644.19
2023-05-24T21:13:20.544Z,100637.44
2023-05-24T21:16:23.566Z,100640.59
2023-05-24T21:19:25.237Z,100639.50
2023-05-24T21:22:27.252Z,100631.69
2023-05-24T21:25:35.090Z,100634.69
2023-05-24T21:28:36.795Z,100636.88
2023-05-24T21:31:38.656Z,100638.22
2023-05-24T21:34:46.205Z,100630.38
2023-05-24T21:37:47.874Z,100629.59
2023-05-24T21:40:49.538Z,100638.09
2023-05-24T21:43:51.417Z,100643.72
2023-05-24T21:46:53.063Z,100659.03
2023-05-24T21:49:54.983Z,100655.06
2023-05-24T21:52:56.607Z,100662.72
2023-05-24T21:55:59.265Z,100648.59
2023-05-24T21:59:00.887Z,100661.41
2023-05-24T22:02:02.737Z,100658.06
2023-05-24T22:05:05.342Z,100666.06
2023-05-24T22:08:07.043Z,100659.44
2023-05-24T22:11:08.711Z,100656.09
2023-05-24T22:14:11.005Z,100656.59
2023-05-24T22:17:14.149Z,100671.56
2023-05-24T22:20:15.993Z,100650.94
2023-05-24T22:23:17.800Z,100673.06
2023-05-24T22:26:19.438Z,100672.72
2023-05-24T22:29:21.040Z,100666.59
2023-05-24T22:32:22.749Z,100671.06
2023-05-24T22:35:24.404Z,100675.88
2023-05-24T22:38:26.139Z,100675.56
2023-05-24T22:41:28.141Z,100693.84
2023-05-24T22:44:29.786Z,100690.16
2023-05-24T22:47:33.547Z,100691.84
2023-05-24T22:50:36.050Z,100689.00
2023-05-24T22:53:39.581Z,100694.81
2023-05-24T22:56:42.022Z,100695.84
2023-05-24T22:59:49.658Z,100694.69
2023-05-24T23:02:51.301Z,100687.19
2023-05-24T23:05:53.677Z,100708.97
2023-05-24T23:08:55.615Z,100703.28
2023-05-24T23:11:58.735Z,100711.94
2023-05-24T23:15:00.604Z,100699.13
2023-05-24T23:18:02.952Z,100700.59
2023-05-24T23:21:04.792Z,100707.59
2023-05-24T23:24:07.066Z,100701.75
2023-05-24T23:27:09.106Z,100706.25
2023-05-24T23:30:11.099Z,100707.72
2023-05-24T23:33:12.748Z,100707.22
2023-05-24T23:36:14.345Z,100706.16
2023-05-24T23:39:16.359Z,100707.84
2023-05-24T23:42:18.016Z,100703.81
2023-05-24T23:45:19.649Z,100706.47
2023-05-24T23:48:21.908Z,100709.63
2023-05-24T23:51:23.719Z,100701.16
2023-05-24T23:54:25.479Z,100712.09
2023-05-24T23:57:27.250Z,100714.94
